Time;durP1;ratioP1;P1;durP2;ratioP2;P2;SDS_P1;SDS_P2;PMS_P1;PMS_P2;Temp;Humidity;BMP_temperature;BMP_pressure;BME280_temperature;BME280_humidity;BME280_pressure;Samples;Min_cycle;Max_cycle;Signal;HPM_P1;HPM_P2
2022/07/04 00:00:23;;;;;;;4.75;4.18;;;;;;;;;;5085231;28;20055;-86
2022/07/04 00:02:49;;;;;;;4.25;3.85;;;;;;;;;;5085608;28;20028;-87
2022/07/04 00:05:15;;;;;;;6.35;4.40;;;;;;;;;;5085971;28;20032;-87
2022/07/04 00:07:43;;;;;;;29.05;26.05;;;;;;;;;;5090044;28;20123;-87
2022/07/04 00:10:10;;;;;;;16.20;13.95;;;;;;;;;;5087745;28;20028;-86
2022/07/04 00:12:36;;;;;;;17.88;15.98;;;;;;;;;;5091633;28;20031;-86
2022/07/04 00:15:03;;;;;;;8.35;6.45;;;;;;;;;;5091819;28;20348;-89
2022/07/04 00:17:29;;;;;;;4.25;3.85;;;;;;;;;;5093930;28;20024;-87
2022/07/04 00:19:54;;;;;;;7.65;4.63;;;;;;;;;;5094503;28;20161;-87
2022/07/04 00:22:20;;;;;;;6.75;4.25;;;;;;;;;;5093083;28;20384;-87
2022/07/04 00:24:45;;;;;;;4.70;4.30;;;;;;;;;;5094993;28;20024;-86
2022/07/04 00:27:11;;;;;;;4.55;4.15;;;;;;;;;;5093607;28;20024;-87
2022/07/04 00:29:36;;;;;;;4.93;4.45;;;;;;;;;;5094986;28;20024;-87
2022/07/04 00:32:02;;;;;;;6.85;4.40;;;;;;;;;;5091951;28;20020;-88
2022/07/04 00:34:27;;;;;;;5.47;4.25;;;;;;;;;;5091862;28;20071;-86
2022/07/04 00:36:53;;;;;;;5.80;4.72;;;;;;;;;;5095846;28;20074;-86
2022/07/04 00:39:18;;;;;;;4.88;4.38;;;;;;;;;;5090701;28;20080;-87
2022/07/04 00:41:44;;;;;;;5.72;4.53;;;;;;;;;;5090698;28;20113;-86
2022/07/04 00:44:11;;;;;;;5.25;4.75;;;;;;;;;;5094340;28;20020;-86
2022/07/04 00:46:37;;;;;;;5.13;4.00;;;;;;;;;;5093631;28;20035;-86
2022/07/04 00:49:04;;;;;;;5.70;4.85;;;;;;;;;;5092657;28;20387;-85
2022/07/04 00:51:30;;;;;;;4.82;4.43;;;;;;;;;;5092532;28;20360;-87
2022/07/04 00:53:56;;;;;;;5.15;4.65;;;;;;;;;;5094015;28;20051;-85
2022/07/04 00:56:25;;;;;;;4.78;4.15;;;;;;;;;;5095296;28;20460;-86
2022/07/04 00:58:52;;;;;;;;;;;;;;;;;;5094856;28;20024;-85
2022/07/04 01:01:19;;;;;;;5.22;4.28;;;;;;;;;;5095502;28;19923;-86
2022/07/04 01:03:44;;;;;;;6.95;4.32;;;;;;;;;;5094495;28;20031;-86
2022/07/04 01:06:10;;;;;;;5.55;4.88;;;;;;;;;;5094947;28;20464;-86
2022/07/04 01:08:40;;;;;;;5.32;4.78;;;;;;;;;;5094743;28;20028;-86
2022/07/04 01:11:06;;;;;;;5.57;5.05;;;;;;;;;;5093625;28;20034;-86
2022/07/04 01:13:32;;;;;;;5.22;4.72;;;;;;;;;;5093765;28;20028;-85
2022/07/04 01:15:57;;;;;;;5.30;4.80;;;;;;;;;;5094850;28;20537;-85
2022/07/04 01:18:23;;;;;;;5.25;4.75;;;;;;;;;;5094561;28;20035;-86
2022/07/04 01:20:49;;;;;;;6.28;4.50;;;;;;;;;;5093672;28;20089;-85
2022/07/04 01:23:15;;;;;;;4.80;4.30;;;;;;;;;;5093281;28;20418;-85
2022/07/04 01:25:41;;;;;;;5.10;4.50;;;;;;;;;;5093897;28;20031;-86
2022/07/04 01:28:07;;;;;;;5.47;4.70;;;;;;;;;;5094158;28;20032;-87
2022/07/04 01:30:32;;;;;;;5.32;4.82;;;;;;;;;;5094464;28;20042;-86
2022/07/04 01:32:58;;;;;;;5.65;5.05;;;;;;;;;;5094777;28;20035;-86
2022/07/04 01:35:23;;;;;;;4.65;4.22;;;;;;;;;;5094353;28;20058;-84
2022/07/04 01:37:50;;;;;;;5.75;5.00;;;;;;;;;;5093224;28;20039;-86
2022/07/04 01:40:16;;;;;;;4.78;4.35;;;;;;;;;;5094421;28;20051;-86
2022/07/04 01:42:41;;;;;;;6.18;4.32;;;;;;;;;;5093539;28;20020;-86
2022/07/04 01:45:08;;;;;;;5.10;4.60;;;;;;;;;;5090829;28;20035;-85
2022/07/04 01:47:34;;;;;;;5.15;4.65;;;;;;;;;;5090615;28;20037;-85
2022/07/04 01:50:00;;;;;;;5.15;4.65;;;;;;;;;;5092564;28;20110;-85
2022/07/04 01:52:25;;;;;;;5.40;4.90;;;;;;;;;;5092287;28;20368;-85
2022/07/04 01:54:51;;;;;;;5.15;4.65;;;;;;;;;;5092620;28;20024;-85
2022/07/04 01:57:16;;;;;;;5.63;4.38;;;;;;;;;;5091269;28;20024;-87
2022/07/04 02:02:26;;;;;;;5.18;4.68;;;;;;;;;;5091823;28;20031;-87
2022/07/04 02:04:54;;;;;;;5.68;5.07;;;;;;;;;;5093379;28;20107;-86
2022/07/04 02:07:20;;;;;;;5.32;4.80;;;;;;;;;;5093615;28;20405;-87
2022/07/04 02:09:46;;;;;;;5.25;4.13;;;;;;;;;;5093298;28;20031;-87
2022/07/04 02:14:55;;;;;;;5.47;4.78;;;;;;;;;;5092655;28;20129;-87
2022/07/04 02:17:21;;;;;;;5.35;4.85;;;;;;;;;;5093677;28;20111;-87
2022/07/04 02:19:47;;;;;;;6.50;5.45;;;;;;;;;;5093440;28;20097;-85
2022/07/04 02:22:13;;;;;;;16.13;14.20;;;;;;;;;;5091976;28;20042;-86
2022/07/04 02:24:39;;;;;;;7.28;6.28;;;;;;;;;;5093442;28;20028;-87
2022/07/04 02:27:04;;;;;;;7.40;5.18;;;;;;;;;;5092281;28;20103;-86
2022/07/04 02:29:30;;;;;;;5.88;4.93;;;;;;;;;;5093340;28;20108;-88
2022/07/04 02:31:55;;;;;;;5.10;4.60;;;;;;;;;;5091841;28;20036;-87
2022/07/04 02:34:21;;;;;;;5.85;4.53;;;;;;;;;;5093203;28;20024;-85
2022/07/04 02:36:46;;;;;;;5.85;5.20;;;;;;;;;;5093056;28;20032;-86
2022/07/04 02:39:12;;;;;;;5.60;5.10;;;;;;;;;;5092446;28;20024;-86
2022/07/04 02:41:37;;;;;;;6.05;4.78;;;;;;;;;;5090257;28;20024;-85
2022/07/04 02:44:03;;;;;;;5.63;4.60;;;;;;;;;;5091433;28;20028;-85
2022/07/04 02:46:28;;;;;;;5.03;4.53;;;;;;;;;;5093025;28;20480;-86
2022/07/04 02:48:54;;;;;;;5.75;5.15;;;;;;;;;;5092745;28;20067;-84
2022/07/04 02:51:20;;;;;;;5.80;4.82;;;;;;;;;;5092847;28;20136;-84
2022/07/04 02:53:46;;;;;;;5.82;5.22;;;;;;;;;;5092699;28;20085;-87
2022/07/04 02:56:11;;;;;;;8.48;4.95;;;;;;;;;;5092393;28;20024;-86
2022/07/04 02:58:37;;;;;;;5.13;4.63;;;;;;;;;;5087240;28;20039;-85
2022/07/04 03:01:02;;;;;;;4.90;4.40;;;;;;;;;;5089163;28;20101;-84
2022/07/04 03:03:28;;;;;;;5.35;4.60;;;;;;;;;;5090241;28;20031;-86
2022/07/04 03:05:53;;;;;;;5.90;5.18;;;;;;;;;;5089274;28;20027;-85
2022/07/04 03:08:19;;;;;;;8.65;5.20;;;;;;;;;;5092244;28;20453;-87
2022/07/04 03:10:45;;;;;;;6.15;4.63;;;;;;;;;;5092642;28;20031;-84
2022/07/04 03:13:10;;;;;;;6.28;4.93;;;;;;;;;;5092197;28;20056;-85
2022/07/04 03:15:35;;;;;;;5.97;5.38;;;;;;;;;;5089962;28;20054;-87
2022/07/04 03:18:01;;;;;;;5.63;5.07;;;;;;;;;;5091086;28;20099;-87
2022/07/04 03:20:26;;;;;;;5.45;4.95;;;;;;;;;;5089858;28;20036;-87
2022/07/04 03:22:54;;;;;;;5.55;4.97;;;;;;;;;;5091860;28;20020;-86
2022/07/04 03:25:20;;;;;;;5.32;4.30;;;;;;;;;;5092430;28;20360;-86
2022/07/04 03:27:45;;;;;;;5.32;4.82;;;;;;;;;;5090634;28;20028;-87
2022/07/04 03:30:11;;;;;;;6.05;4.82;;;;;;;;;;5092000;28;20107;-86
2022/07/04 03:32:36;;;;;;;5.88;5.20;;;;;;;;;;5090730;28;20026;-87
2022/07/04 03:35:02;;;;;;;5.50;5.00;;;;;;;;;;5088331;28;20426;-86
2022/07/04 03:37:28;;;;;;;6.82;5.47;;;;;;;;;;5086715;28;20827;-84
2022/07/04 03:39:53;;;;;;;15.40;13.55;;;;;;;;;;5090407;28;20135;-84
2022/07/04 03:42:19;;;;;;;17.17;15.38;;;;;;;;;;5088929;28;20019;-85
2022/07/04 03:44:44;;;;;;;5.43;4.93;;;;;;;;;;5089689;28;20028;-85
2022/07/04 03:47:09;;;;;;;5.53;5.03;;;;;;;;;;5090273;28;20024;-85
2022/07/04 03:49:35;;;;;;;6.35;5.25;;;;;;;;;;5091530;28;20020;-84
2022/07/04 03:52:00;;;;;;;6.18;5.57;;;;;;;;;;5096098;28;20035;-84
2022/07/04 03:54:28;;;;;;;5.97;5.47;;;;;;;;;;5097089;28;20054;-87
2022/07/04 03:56:57;;;;;;;5.60;5.10;;;;;;;;;;5094827;28;20852;-86
2022/07/04 03:59:22;;;;;;;6.07;5.47;;;;;;;;;;5095586;28;20518;-85
2022/07/04 04:01:48;;;;;;;5.30;4.80;;;;;;;;;;5097926;28;20027;-86
2022/07/04 04:06:58;;;;;;;5.28;4.85;;;;;;;;;;5093558;28;20796;-85
2022/07/04 04:09:24;;;;;;;5.93;4.68;;;;;;;;;;5096311;28;20028;-87
2022/07/04 04:11:50;;;;;;;15.45;13.85;;;;;;;;;;5093467;28;20517;-86
2022/07/04 04:14:16;;;;;;;12.32;11.15;;;;;;;;;;5097180;28;20054;-86
2022/07/04 04:16:42;;;;;;;5.28;4.78;;;;;;;;;;5097313;28;20056;-86
2022/07/04 04:19:12;;;;;;;5.13;4.68;;;;;;;;;;5096281;28;20016;-86
2022/07/04 04:21:37;;;;;;;4.03;3.63;;;;;;;;;;5093868;28;20031;-86
2022/07/04 04:24:03;;;;;;;4.55;3.83;;;;;;;;;;5097342;28;20038;-85
2022/07/04 04:26:29;;;;;;;5.15;3.33;;;;;;;;;;5095501;28;20030;-87
2022/07/04 04:28:55;;;;;;;3.47;3.00;;;;;;;;;;5096246;28;20490;-86
2022/07/04 04:31:21;;;;;;;3.85;2.78;;;;;;;;;;5095534;28;20024;-86
2022/07/04 04:33:46;;;;;;;6.55;3.00;;;;;;;;;;5090357;28;20027;-84
2022/07/04 04:36:12;;;;;;;3.40;3.10;;;;;;;;;;5096382;28;20135;-85
2022/07/04 04:38:37;;;;;;;4.07;2.85;;;;;;;;;;5092989;28;20100;-85
2022/07/04 04:41:03;;;;;;;3.90;2.85;;;;;;;;;;5095674;28;20585;-85
2022/07/04 04:43:28;;;;;;;4.47;4.07;;;;;;;;;;5096697;28;20036;-86
2022/07/04 04:45:54;;;;;;;6.50;5.53;;;;;;;;;;5089664;28;20032;-86
2022/07/04 04:48:19;;;;;;;3.45;3.05;;;;;;;;;;5093779;28;20021;-87
2022/07/04 04:50:45;;;;;;;3.08;2.78;;;;;;;;;;5094306;28;20050;-85
2022/07/04 04:53:11;;;;;;;4.68;3.45;;;;;;;;;;5097213;28;20479;-85
2022/07/04 04:55:37;;;;;;;3.25;2.95;;;;;;;;;;5094556;28;20047;-85
2022/07/04 04:58:02;;;;;;;4.30;3.30;;;;;;;;;;5095388;28;20035;-84
2022/07/04 05:00:28;;;;;;;4.00;3.30;;;;;;;;;;5095106;28;20065;-84
2022/07/04 05:02:57;;;;;;;4.70;3.42;;;;;;;;;;5090848;28;20020;-86
2022/07/04 05:05:23;;;;;;;;;;;;;;;;;;5086229;28;20078;-86
2022/07/04 05:07:48;;;;;;;3.83;3.17;;;;;;;;;;5092353;28;19916;-85
2022/07/04 05:10:15;;;;;;;15.13;13.55;;;;;;;;;;5090928;28;20073;-85
2022/07/04 05:12:42;;;;;;;14.10;11.23;;;;;;;;;;5090762;28;20036;-83
2022/07/04 05:15:08;;;;;;;7.80;6.22;;;;;;;;;;5092657;28;20460;-85
2022/07/04 05:17:34;;;;;;;4.28;3.13;;;;;;;;;;5090599;28;20426;-85
2022/07/04 05:19:59;;;;;;;6.03;3.60;;;;;;;;;;5090087;28;20064;-86
2022/07/04 05:22:25;;;;;;;3.85;3.22;;;;;;;;;;5091731;28;20020;-86
2022/07/04 05:24:51;;;;;;;4.28;3.38;;;;;;;;;;5093466;28;20173;-86
2022/07/04 05:27:16;;;;;;;5.32;3.25;;;;;;;;;;5093902;28;20020;-86
2022/07/04 05:29:42;;;;;;;5.28;3.45;;;;;;;;;;5094441;28;20464;-86
2022/07/04 05:32:07;;;;;;;4.55;3.10;;;;;;;;;;5094721;28;20469;-87
2022/07/04 05:34:33;;;;;;;3.55;2.60;;;;;;;;;;5094381;28;20419;-86
2022/07/04 05:36:59;;;;;;;4.28;2.80;;;;;;;;;;5092472;28;22019;-85
2022/07/04 05:39:24;;;;;;;4.47;3.10;;;;;;;;;;5094448;28;20089;-87
2022/07/04 05:41:49;;;;;;;4.18;3.45;;;;;;;;;;5094070;28;20464;-86
2022/07/04 05:44:15;;;;;;;4.63;2.97;;;;;;;;;;5094252;28;20020;-86
2022/07/04 05:46:40;;;;;;;6.72;3.17;;;;;;;;;;5087905;28;20107;-86
2022/07/04 05:49:06;;;;;;;10.73;8.02;;;;;;;;;;5092568;28;20021;-86
2022/07/04 05:51:31;;;;;;;12.93;9.98;;;;;;;;;;5090553;28;20035;-85
2022/07/04 05:53:56;;;;;;;4.30;3.42;;;;;;;;;;5093761;28;20048;-86
2022/07/04 05:56:23;;;;;;;4.82;3.10;;;;;;;;;;5088777;28;20031;-88
2022/07/04 05:58:48;;;;;;;4.05;2.72;;;;;;;;;;5092647;28;20055;-87
2022/07/04 06:01:14;;;;;;;4.55;3.42;;;;;;;;;;5093685;28;20055;-87
2022/07/04 06:03:39;;;;;;;5.88;3.40;;;;;;;;;;5092530;28;20111;-86
2022/07/04 06:06:06;;;;;;;4.47;2.90;;;;;;;;;;5092383;28;20138;-87
2022/07/04 06:08:32;;;;;;;4.18;2.97;;;;;;;;;;5093525;28;20828;-87
2022/07/04 06:10:58;;;;;;;3.25;2.65;;;;;;;;;;5094060;28;20487;-87
2022/07/04 06:13:24;;;;;;;4.70;3.40;;;;;;;;;;5091255;28;20357;-87
2022/07/04 06:15:49;;;;;;;11.48;8.05;;;;;;;;;;5092152;28;20053;-86
2022/07/04 06:18:15;;;;;;;13.98;7.30;;;;;;;;;;5092480;28;20388;-86
2022/07/04 06:20:41;;;;;;;4.43;3.50;;;;;;;;;;5092179;28;20031;-86
2022/07/04 06:23:07;;;;;;;5.45;3.30;;;;;;;;;;5092120;28;20035;-87
2022/07/04 06:25:33;;;;;;;4.95;3.00;;;;;;;;;;5089129;28;20027;-85
2022/07/04 06:27:59;;;;;;;6.55;3.30;;;;;;;;;;5091111;28;20040;-86
2022/07/04 06:30:24;;;;;;;4.72;3.10;;;;;;;;;;5086913;28;20047;-85
2022/07/04 06:32:53;;;;;;;5.55;3.35;;;;;;;;;;5091007;28;20082;-86
2022/07/04 06:35:44;;;;;;;4.53;3.20;;;;;;;;;;5087250;28;20020;-85
2022/07/04 06:38:19;;;;;;;4.75;3.33;;;;;;;;;;5091633;28;20059;-86
2022/07/04 06:40:45;;;;;;;4.50;3.22;;;;;;;;;;5089706;28;20487;-87
2022/07/04 06:43:11;;;;;;;3.88;2.95;;;;;;;;;;5089213;28;20024;-85
2022/07/04 06:45:39;;;;;;;5.78;3.10;;;;;;;;;;5091919;28;20034;-84
2022/07/04 06:48:05;;;;;;;4.68;3.20;;;;;;;;;;5086806;28;20116;-85
2022/07/04 06:50:34;;;;;;;3.90;3.20;;;;;;;;;;5087756;28;20024;-85
2022/07/04 06:53:04;;;;;;;5.43;3.30;;;;;;;;;;5085427;28;20053;-85
2022/07/04 06:55:30;;;;;;;4.88;3.13;;;;;;;;;;5088516;28;20032;-86
2022/07/04 06:57:56;;;;;;;4.78;3.20;;;;;;;;;;5091378;28;20039;-86
2022/07/04 07:00:22;;;;;;;3.92;3.20;;;;;;;;;;5089155;28;20024;-87
2022/07/04 07:02:47;;;;;;;4.35;3.00;;;;;;;;;;5094825;28;20032;-86
2022/07/04 07:05:13;;;;;;;5.07;3.17;;;;;;;;;;5089610;28;20420;-87
2022/07/04 07:07:38;;;;;;;8.07;2.90;;;;;;;;;;5090507;28;20028;-86
2022/07/04 07:10:06;;;;;;;6.38;3.15;;;;;;;;;;5088629;28;20032;-84
2022/07/04 07:12:32;;;;;;;7.93;3.20;;;;;;;;;;5089198;28;20031;-85
2022/07/04 07:15:01;;;;;;;6.88;4.28;;;;;;;;;;5090020;28;20061;-86
2022/07/04 07:17:27;;;;;;;6.17;2.90;;;;;;;;;;5092321;28;20047;-85
2022/07/04 07:19:53;;;;;;;6.70;3.10;;;;;;;;;;5092088;28;20031;-86
2022/07/04 07:22:19;;;;;;;3.88;2.83;;;;;;;;;;5092128;28;20059;-85
2022/07/04 07:24:45;;;;;;;3.70;2.95;;;;;;;;;;5091554;28;20042;-86
2022/07/04 07:27:10;;;;;;;7.88;3.15;;;;;;;;;;5088392;28;20033;-86
2022/07/04 07:29:37;;;;;;;7.72;3.50;;;;;;;;;;5090747;28;20031;-87
2022/07/04 07:32:03;;;;;;;4.63;3.05;;;;;;;;;;5092142;28;20074;-84
2022/07/04 07:34:29;;;;;;;4.25;2.85;;;;;;;;;;5091842;28;20050;-85
2022/07/04 07:36:54;;;;;;;5.25;3.08;;;;;;;;;;5086287;28;20081;-86
2022/07/04 07:39:20;;;;;;;4.88;2.80;;;;;;;;;;5087191;28;20078;-85
2022/07/04 07:41:46;;;;;;;6.78;3.10;;;;;;;;;;5088962;28;20051;-89
2022/07/04 07:44:11;;;;;;;4.85;3.00;;;;;;;;;;5088500;28;20043;-86
2022/07/04 07:46:37;;;;;;;5.43;2.58;;;;;;;;;;5091846;28;20091;-86
2022/07/04 07:49:03;;;;;;;4.03;2.90;;;;;;;;;;5090318;28;20418;-84
2022/07/04 07:51:29;;;;;;;4.18;3.17;;;;;;;;;;5092027;28;20060;-89
2022/07/04 07:53:54;;;;;;;4.40;2.97;;;;;;;;;;5091983;28;20051;-87
2022/07/04 07:56:20;;;;;;;5.85;2.97;;;;;;;;;;5088597;28;20020;-87
2022/07/04 07:58:45;;;;;;;7.32;2.90;;;;;;;;;;5089412;28;20495;-87
2022/07/04 08:01:11;;;;;;;4.60;2.50;;;;;;;;;;5087833;28;20024;-87
2022/07/04 08:06:20;;;;;;;5.45;3.00;;;;;;;;;;5092267;28;20033;-87
2022/07/04 08:08:46;;;;;;;4.80;2.40;;;;;;;;;;5090096;28;20464;-86
2022/07/04 08:11:11;;;;;;;4.88;2.90;;;;;;;;;;5091589;28;20031;-87
2022/07/04 08:13:38;;;;;;;5.85;2.70;;;;;;;;;;5086950;28;20081;-86
2022/07/04 08:16:04;;;;;;;7.63;2.72;;;;;;;;;;5091635;28;20032;-87
2022/07/04 08:18:29;;;;;;;4.97;2.67;;;;;;;;;;5092253;28;20487;-88
2022/07/04 08:20:55;;;;;;;5.18;2.72;;;;;;;;;;5090615;28;20066;-88
2022/07/04 08:23:20;;;;;;;4.78;2.78;;;;;;;;;;5090750;28;20070;-87
2022/07/04 08:25:45;;;;;;;3.78;2.60;;;;;;;;;;5090096;28;20376;-87
2022/07/04 08:28:11;;;;;;;4.43;2.70;;;;;;;;;;5088538;28;20468;-86
2022/07/04 08:30:39;;;;;;;8.23;3.10;;;;;;;;;;5089803;28;20020;-88
2022/07/04 08:33:11;;;;;;;4.53;2.53;;;;;;;;;;5090705;28;20089;-85
2022/07/04 08:35:45;;;;;;;4.90;2.85;;;;;;;;;;5090641;28;20024;-87
2022/07/04 08:38:11;;;;;;;9.70;3.00;;;;;;;;;;5096716;28;20050;-86
2022/07/04 08:40:36;;;;;;;3.45;2.92;;;;;;;;;;5094648;28;20024;-89
2022/07/04 08:43:03;;;;;;;2.95;2.65;;;;;;;;;;5094283;28;20372;-86
2022/07/04 08:45:32;;;;;;;4.22;2.85;;;;;;;;;;5094003;28;20020;-87
2022/07/04 08:48:19;;;;;;;4.65;3.42;;;;;;;;;;5094369;28;20023;-87
2022/07/04 08:50:51;;;;;;;5.50;3.00;;;;;;;;;;5095325;28;20035;-86
2022/07/04 08:53:19;;;;;;;3.60;2.92;;;;;;;;;;5095117;28;20040;-85
2022/07/04 08:58:31;;;;;;;4.28;3.03;;;;;;;;;;5092735;28;20536;-89
2022/07/04 09:01:04;;;;;;;6.20;3.50;;;;;;;;;;5090573;28;20396;-84
2022/07/04 09:03:31;;;;;;;7.03;3.13;;;;;;;;;;5089921;28;20031;-85
2022/07/04 09:05:57;;;;;;;4.53;3.05;;;;;;;;;;5095203;28;20081;-86
2022/07/04 09:08:23;;;;;;;4.07;3.25;;;;;;;;;;5090951;28;20472;-87
2022/07/04 09:10:50;;;;;;;7.68;3.38;;;;;;;;;;5092706;28;20061;-86
2022/07/04 09:13:17;;;;;;;3.42;2.78;;;;;;;;;;5088727;28;20058;-87
2022/07/04 09:15:45;;;;;;;4.80;2.92;;;;;;;;;;5093611;28;20028;-87
2022/07/04 09:18:20;;;;;;;5.03;2.63;;;;;;;;;;5093622;28;20717;-85
2022/07/04 09:20:46;;;;;;;4.15;2.60;;;;;;;;;;5094174;28;20027;-88
2022/07/04 09:23:26;;;;;;;5.40;2.97;;;;;;;;;;5090294;28;20024;-86
2022/07/04 09:26:07;;;;;;;3.22;2.90;;;;;;;;;;5091529;28;20086;-87
2022/07/04 09:28:34;;;;;;;5.88;3.40;;;;;;;;;;5087952;28;20032;-87
2022/07/04 09:30:59;;;;;;;3.20;2.75;;;;;;;;;;5088266;28;20023;-87
2022/07/04 09:33:54;;;;;;;3.55;3.10;;;;;;;;;;5090652;28;20039;-86
2022/07/04 09:36:25;;;;;;;3.30;3.00;;;;;;;;;;5078231;28;20035;-82
2022/07/04 09:39:18;;;;;;;3.28;2.97;;;;;;;;;;5083297;28;20016;-87
2022/07/04 09:42:01;;;;;;;4.35;3.00;;;;;;;;;;5094162;28;20063;-86
2022/07/04 09:44:44;;;;;;;4.50;3.78;;;;;;;;;;5089204;28;20491;-83
2022/07/04 09:47:39;;;;;;;3.42;2.80;;;;;;;;;;5093695;28;20020;-85
2022/07/04 09:50:15;;;;;;;6.45;3.38;;;;;;;;;;5084595;28;20131;-87
2022/07/04 09:53:00;;;;;;;7.85;3.40;;;;;;;;;;5089970;28;20411;-87
2022/07/04 09:55:30;;;;;;;5.15;3.20;;;;;;;;;;5091559;28;20035;-87
2022/07/04 09:58:05;;;;;;;5.47;3.00;;;;;;;;;;5093283;28;20038;-84
2022/07/04 10:00:39;;;;;;;3.85;2.72;;;;;;;;;;5089928;28;20045;-84
2022/07/04 10:03:21;;;;;;;3.20;2.90;;;;;;;;;;5087659;28;20067;-87
2022/07/04 10:05:50;;;;;;;3.30;3.00;;;;;;;;;;5094593;28;20537;-88
2022/07/04 10:08:18;;;;;;;4.70;3.00;;;;;;;;;;5091422;28;20024;-87
2022/07/04 10:10:44;;;;;;;4.60;2.95;;;;;;;;;;5095293;28;20020;-85
2022/07/04 10:13:12;;;;;;;3.83;3.20;;;;;;;;;;5087333;28;20034;-87
2022/07/04 10:15:42;;;;;;;3.40;3.10;;;;;;;;;;5089971;28;20023;-87
2022/07/04 10:18:09;;;;;;;27.05;5.05;;;;;;;;;;5090653;28;20031;-87
2022/07/04 10:20:36;;;;;;;5.10;3.00;;;;;;;;;;5085796;28;20543;-86
2022/07/04 10:23:02;;;;;;;3.30;2.97;;;;;;;;;;5089271;28;20025;-87
2022/07/04 10:25:28;;;;;;;3.97;2.92;;;;;;;;;;5089736;28;20521;-86
2022/07/04 10:27:54;;;;;;;4.32;3.35;;;;;;;;;;5089512;28;20511;-88
2022/07/04 10:30:31;;;;;;;5.20;3.40;;;;;;;;;;5091870;28;20028;-88
2022/07/04 10:32:59;;;;;;;3.22;2.90;;;;;;;;;;5089606;28;20361;-87
2022/07/04 10:35:50;;;;;;;4.72;3.00;;;;;;;;;;5088795;28;20555;-87
2022/07/04 10:38:24;;;;;;;8.63;3.17;;;;;;;;;;5090389;28;20536;-86
2022/07/04 10:40:53;;;;;;;8.32;3.50;;;;;;;;;;5087794;28;20443;-89
2022/07/04 10:43:25;;;;;;;5.25;3.20;;;;;;;;;;5089718;28;20534;-87
2022/07/04 10:45:52;;;;;;;3.13;2.83;;;;;;;;;;5090309;28;20059;-87
2022/07/04 10:48:24;;;;;;;5.15;3.35;;;;;;;;;;5092745;28;20062;-87
2022/07/04 10:51:04;;;;;;;5.25;3.25;;;;;;;;;;5092563;28;20039;-87
2022/07/04 10:53:30;;;;;;;3.85;3.00;;;;;;;;;;5086308;28;20033;-88
2022/07/04 10:56:20;;;;;;;4.82;3.17;;;;;;;;;;5090786;28;20050;-85
2022/07/04 10:58:46;;;;;;;5.63;3.10;;;;;;;;;;5088169;28;20028;-85
2022/07/04 11:01:15;;;;;;;3.10;2.80;;;;;;;;;;5089620;28;20077;-85
2022/07/04 11:03:52;;;;;;;3.40;2.80;;;;;;;;;;5087464;28;20028;-86
2022/07/04 11:06:43;;;;;;;2.97;2.67;;;;;;;;;;5086221;28;20029;-85
2022/07/04 11:09:18;;;;;;;5.32;3.10;;;;;;;;;;5086375;28;20050;-86
2022/07/04 11:11:47;;;;;;;3.17;2.60;;;;;;;;;;5090959;28;20494;-88
2022/07/04 11:14:42;;;;;;;4.20;3.00;;;;;;;;;;5090494;28;20024;-88
2022/07/04 11:17:26;;;;;;;3.67;3.17;;;;;;;;;;5090439;28;20052;-88
2022/07/04 11:20:00;;;;;;;5.13;3.00;;;;;;;;;;5089639;28;20020;-85
2022/07/04 11:22:25;;;;;;;4.47;2.78;;;;;;;;;;5088072;28;20065;-85
2022/07/04 11:24:52;;;;;;;3.47;3.13;;;;;;;;;;5089757;28;20027;-83
2022/07/04 11:27:17;;;;;;;3.72;2.55;;;;;;;;;;5087008;28;20031;-84
2022/07/04 11:29:53;;;;;;;4.07;2.88;;;;;;;;;;5080187;28;20472;-84
2022/07/04 11:32:20;;;;;;;3.45;2.92;;;;;;;;;;5087144;28;20039;-85
2022/07/04 11:34:46;;;;;;;3.72;3.33;;;;;;;;;;5080830;28;20472;-84
2022/07/04 11:37:12;;;;;;;3.45;2.80;;;;;;;;;;5077361;28;20080;-83
2022/07/04 11:39:38;;;;;;;8.75;2.80;;;;;;;;;;5078616;28;20013;-84
2022/07/04 11:45:05;;;;;;;5.30;2.88;;;;;;;;;;5080892;28;20026;-84
2022/07/04 11:47:38;;;;;;;2.65;2.45;;;;;;;;;;5082641;28;20164;-85
2022/07/04 11:50:08;;;;;;;3.22;2.75;;;;;;;;;;5080358;28;20032;-83
2022/07/04 11:52:37;;;;;;;6.57;3.03;;;;;;;;;;5083276;28;20023;-85
2022/07/04 11:55:07;;;;;;;4.10;2.80;;;;;;;;;;5086847;28;20422;-85
2022/07/04 11:57:35;;;;;;;5.50;2.88;;;;;;;;;;5085783;28;20044;-85
2022/07/04 12:00:04;;;;;;;2.95;2.63;;;;;;;;;;5083568;28;20033;-84
2022/07/04 12:02:32;;;;;;;2.97;2.58;;;;;;;;;;5081585;28;20418;-84
2022/07/04 12:04:59;;;;;;;5.45;2.92;;;;;;;;;;5080977;28;20085;-84
2022/07/04 12:07:27;;;;;;;3.10;2.80;;;;;;;;;;5079944;28;20021;-84
2022/07/04 12:09:54;;;;;;;4.05;2.55;;;;;;;;;;5079188;28;20132;-84
2022/07/04 12:12:21;;;;;;;4.50;2.90;;;;;;;;;;5080474;28;20040;-85
2022/07/04 12:15:16;;;;;;;4.55;2.83;;;;;;;;;;5082843;28;20396;-84
2022/07/04 12:17:41;;;;;;;3.95;2.50;;;;;;;;;;5079100;28;20079;-84
2022/07/04 12:20:17;;;;;;;3.75;2.67;;;;;;;;;;5090750;28;20048;-85
2022/07/04 12:22:52;;;;;;;3.67;3.13;;;;;;;;;;5091104;28;20026;-85
2022/07/04 12:25:31;;;;;;;3.30;2.85;;;;;;;;;;5088844;28;20415;-84
2022/07/04 12:28:04;;;;;;;3.30;2.50;;;;;;;;;;5092841;28;20539;-84
2022/07/04 12:30:33;;;;;;;4.85;3.00;;;;;;;;;;5090362;28;20105;-87
2022/07/04 12:33:05;;;;;;;2.95;2.65;;;;;;;;;;5095230;28;20043;-85
2022/07/04 12:35:47;;;;;;;6.00;2.80;;;;;;;;;;5093037;28;20028;-87
2022/07/04 12:38:21;;;;;;;3.28;2.60;;;;;;;;;;5094232;28;20027;-88
2022/07/04 12:40:51;;;;;;;3.10;2.80;;;;;;;;;;5091111;28;20031;-89
2022/07/04 12:43:17;;;;;;;4.22;2.92;;;;;;;;;;5092347;28;20034;-85
2022/07/04 12:45:53;;;;;;;4.53;2.83;;;;;;;;;;5087661;28;20522;-89
2022/07/04 12:48:27;;;;;;;5.00;2.95;;;;;;;;;;5091762;28;20031;-85
2022/07/04 12:51:09;;;;;;;6.53;3.00;;;;;;;;;;5092194;28;20722;-86
2022/07/04 12:53:42;;;;;;;5.25;3.10;;;;;;;;;;5090371;28;20044;-85
2022/07/04 12:56:09;;;;;;;3.40;3.10;;;;;;;;;;5092246;28;20028;-86
2022/07/04 12:58:35;;;;;;;4.10;2.85;;;;;;;;;;5091340;28;20024;-86
2022/07/04 13:01:01;;;;;;;5.38;3.10;;;;;;;;;;5088841;28;20042;-85
2022/07/04 13:03:26;;;;;;;3.25;2.90;;;;;;;;;;5093837;28;20158;-86
2022/07/04 13:05:52;;;;;;;3.00;2.67;;;;;;;;;;5092732;28;20492;-86
2022/07/04 13:08:17;;;;;;;3.75;2.95;;;;;;;;;;5091152;28;20036;-84
2022/07/04 13:10:43;;;;;;;5.03;2.95;;;;;;;;;;5094514;28;20035;-85
2022/07/04 13:13:08;;;;;;;3.45;3.08;;;;;;;;;;5094421;28;20483;-85
2022/07/04 13:15:34;;;;;;;3.38;2.85;;;;;;;;;;5094266;28;20028;-87
2022/07/04 13:18:00;;;;;;;2.88;2.67;;;;;;;;;;5091189;28;20034;-85
2022/07/04 13:20:26;;;;;;;3.25;2.53;;;;;;;;;;5091884;28;20027;-84
2022/07/04 13:22:52;;;;;;;3.08;2.60;;;;;;;;;;5087476;28;20023;-85
2022/07/04 13:25:18;;;;;;;3.60;2.83;;;;;;;;;;5085700;28;20102;-84
2022/07/04 13:27:44;;;;;;;4.38;2.63;;;;;;;;;;5089185;28;20070;-85
2022/07/04 13:30:10;;;;;;;4.80;2.83;;;;;;;;;;5087404;28;20028;-85
2022/07/04 13:32:36;;;;;;;3.53;2.55;;;;;;;;;;5090671;28;20416;-84
2022/07/04 13:35:02;;;;;;;3.10;2.80;;;;;;;;;;5092255;28;20031;-84
2022/07/04 13:37:28;;;;;;;4.60;2.90;;;;;;;;;;5091053;28;20027;-86
2022/07/04 13:39:53;;;;;;;4.25;2.80;;;;;;;;;;5093926;28;20038;-89
2022/07/04 13:45:05;;;;;;;3.45;2.75;;;;;;;;;;5092352;28;20490;-88
2022/07/04 13:47:30;;;;;;;4.00;2.78;;;;;;;;;;5095239;28;20115;-87
2022/07/04 13:49:56;;;;;;;4.35;3.00;;;;;;;;;;5090228;28;20129;-85
2022/07/04 13:52:21;;;;;;;3.70;2.63;;;;;;;;;;5093039;28;20102;-85
2022/07/04 13:54:47;;;;;;;6.75;2.80;;;;;;;;;;5090438;28;20048;-86
2022/07/04 13:57:12;;;;;;;3.72;2.58;;;;;;;;;;5094045;28;20054;-85
2022/07/04 13:59:38;;;;;;;3.42;2.63;;;;;;;;;;5092523;28;20348;-87
2022/07/04 14:02:03;;;;;;;4.30;2.53;;;;;;;;;;5091372;28;20051;-87
2022/07/04 14:04:28;;;;;;;3.83;2.90;;;;;;;;;;5094135;28;20498;-86
2022/07/04 14:06:54;;;;;;;3.00;2.70;;;;;;;;;;5093846;28;20024;-86
2022/07/04 14:09:19;;;;;;;3.58;2.80;;;;;;;;;;5089806;28;20023;-84
2022/07/04 14:11:45;;;;;;;3.55;2.80;;;;;;;;;;5091648;28;20033;-86
2022/07/04 14:14:11;;;;;;;4.53;3.13;;;;;;;;;;5091562;28;20042;-86
2022/07/04 14:16:36;;;;;;;4.43;4.03;;;;;;;;;;5094636;28;20026;-85
2022/07/04 14:19:02;;;;;;;5.07;2.92;;;;;;;;;;5094670;28;20028;-84
2022/07/04 14:21:28;;;;;;;2.88;2.67;;;;;;;;;;5088731;28;20027;-86
2022/07/04 14:23:54;;;;;;;4.57;2.65;;;;;;;;;;5084448;28;20071;-86
2022/07/04 14:26:20;;;;;;;2.90;2.70;;;;;;;;;;5090707;28;20030;-84
2022/07/04 14:28:46;;;;;;;2.80;2.40;;;;;;;;;;5090336;28;20032;-86
2022/07/04 14:31:11;;;;;;;2.92;2.70;;;;;;;;;;5091433;28;20037;-86
2022/07/04 14:33:36;;;;;;;6.13;3.10;;;;;;;;;;5092568;28;20070;-88
2022/07/04 14:36:09;;;;;;;4.95;3.40;;;;;;;;;;5090214;28;20039;-86
2022/07/04 14:38:36;;;;;;;3.28;2.80;;;;;;;;;;5093245;28;20026;-85
2022/07/04 14:41:11;;;;;;;7.97;2.90;;;;;;;;;;5089220;28;20024;-86
2022/07/04 14:43:42;;;;;;;6.63;2.72;;;;;;;;;;5090016;28;20047;-86
2022/07/04 14:46:07;;;;;;;4.30;3.00;;;;;;;;;;5092447;28;20028;-86
2022/07/04 14:48:34;;;;;;;2.78;2.58;;;;;;;;;;5093674;28;20034;-83
2022/07/04 14:51:00;;;;;;;3.40;3.10;;;;;;;;;;5092490;28;20028;-85
2022/07/04 14:53:25;;;;;;;6.53;4.45;;;;;;;;;;5091332;28;20044;-85
2022/07/04 14:55:51;;;;;;;6.15;3.42;;;;;;;;;;5091819;28;20036;-84
2022/07/04 14:58:16;;;;;;;3.45;3.15;;;;;;;;;;5092209;28;21616;-85
2022/07/04 15:00:42;;;;;;;4.70;4.15;;;;;;;;;;5092519;28;20028;-85
2022/07/04 15:03:07;;;;;;;5.03;4.03;;;;;;;;;;5088117;28;20024;-84
2022/07/04 15:05:33;;;;;;;4.47;3.00;;;;;;;;;;5090071;28;20032;-84